Time;durP1;ratioP1;P1;durP2;ratioP2;P2;SDS_P1;SDS_P2;PMS_P1;PMS_P2;Temp;Humidity;BMP_temperature;BMP_pressure;BME280_temperature;BME280_humidity;BME280_pressure;Samples;Min_cycle;Max_cycle;Signal;HPM_P1;HPM_P2
2023/01/11 00:01:07;;;;;;;5.43;1.92;;;4.90;1.00;;;;;;6007445;23;20109;-89
2023/01/11 00:03:58;;;;;;;4.57;1.80;;;5.00;1.00;;;;;;5988971;23;20036;-90
2023/01/11 00:07:01;;;;;;;3.58;1.60;;;5.00;1.00;;;;;;5990657;23;20470;-90
2023/01/11 00:10:00;;;;;;;;;;;;;;;;;;;;;
2023/01/11 00:12:51;;;;;;;4.63;1.98;;;5.10;1.00;;;;;;6026196;23;20032;-90
2023/01/11 00:15:54;;;;;;;4.78;1.70;;;5.10;5.70;;;;;;5998873;23;20028;-87
2023/01/11 00:18:56;;;;;;;3.63;1.50;;;5.10;22.10;;;;;;5994025;23;20028;-89
2023/01/11 00:21:48;;;;;;;4.47;1.70;;;5.20;42.80;;;;;;5993344;23;20031;-89
2023/01/11 00:24:43;;;;;;;3.50;1.70;;;5.30;65.80;;;;;;5992290;23;20031;-87
2023/01/11 00:27:33;;;;;;;3.00;1.30;;;5.30;82.30;;;;;;5991867;23;20031;-88
2023/01/11 00:30:25;;;;;;;5.30;1.73;;;5.30;94.90;;;;;;5989038;23;20028;-88
2023/01/11 00:33:13;;;;;;;3.08;1.45;;;5.40;99.90;;;;;;5990891;23;20439;-88
2023/01/11 00:36:04;;;;;;;4.43;1.35;;;5.50;99.90;;;;;;5991407;23;20351;-89
2023/01/11 00:38:54;;;;;;;5.47;1.60;;;5.50;99.90;;;;;;5994760;23;20028;-89
2023/01/11 00:48:05;;;;;;;5.45;1.30;;;5.50;99.90;;;;;;6007884;23;20036;-91
2023/01/11 00:50:58;;;;;;;;;;;5.50;99.90;;;;;;5974315;23;20427;-88
2023/01/11 00:53:54;;;;;;;4.20;1.50;;;5.50;99.90;;;;;;6003081;23;20302;-89
2023/01/11 00:56:45;;;;;;;1.80;1.25;;;5.40;99.90;;;;;;6104112;23;20629;-88
2023/01/11 00:59:38;;;;;;;5.93;1.38;;;5.40;99.90;;;;;;6103121;23;20021;-87
2023/01/11 01:02:32;;;;;;;4.45;1.83;;;5.40;99.90;;;;;;6104165;23;20104;-89
2023/01/11 01:05:23;;;;;;;5.38;1.83;;;5.30;99.90;;;;;;6104177;23;20030;-86
2023/01/11 01:08:10;;;;;;;1.55;1.30;;;5.30;99.90;;;;;;6101925;23;20030;-88
2023/01/11 01:10:58;;;;;;;3.80;1.60;;;5.30;99.90;;;;;;6085090;23;20030;-90
2023/01/11 01:17:07;;;;;;;5.18;1.60;;;5.40;99.90;;;;;;6123551;23;20068;-89
2023/01/11 01:19:56;;;;;;;3.40;1.35;;;5.40;99.90;;;;;;6102977;23;20025;-88
2023/01/11 01:22:46;;;;;;;2.17;1.30;;;5.40;99.90;;;;;;6103255;23;20026;-88
2023/01/11 01:25:36;;;;;;;4.85;1.40;;;5.40;99.90;;;;;;6086036;23;20322;-88
2023/01/11 01:28:24;;;;;;;6.70;1.40;;;5.40;99.90;;;;;;6108016;23;20101;-89
2023/01/11 01:31:36;;;;;;;2.95;1.40;;;5.50;99.90;;;;;;6103505;23;20037;-88
2023/01/11 01:34:25;;;;;;;2.97;1.67;;;5.60;99.90;;;;;;6103236;23;20372;-91
2023/01/11 01:37:14;;;;;;;2.05;1.35;;;5.70;1.00;;;;;;6101299;23;20041;-89
2023/01/11 01:40:05;;;;;;;3.10;1.35;;;5.60;1.00;;;;;;6104061;23;20060;-88
2023/01/11 01:42:56;;;;;;;8.00;1.50;;;5.60;1.00;;;;;;6103124;23;20037;-89
2023/01/11 01:45:44;;;;;;;5.00;1.63;;;5.60;1.00;;;;;;6102865;23;20110;-88
2023/01/11 01:48:34;;;;;;;6.32;1.50;;;5.60;1.00;;;;;;6102439;23;20030;-91
2023/01/11 01:51:38;;;;;;;2.70;1.52;;;5.50;1.00;;;;;;6105180;23;20151;-89
2023/01/11 01:54:31;;;;;;;2.17;1.20;;;5.60;1.00;;;;;;6104603;23;20030;-90
2023/01/11 01:57:24;;;;;;;4.80;1.40;;;5.60;1.00;;;;;;6102926;23;20026;-89
2023/01/11 02:00:12;;;;;;;2.35;1.30;;;5.70;1.00;;;;;;6110837;23;20387;-90
2023/01/11 02:03:04;;;;;;;4.90;1.63;;;5.80;1.00;;;;;;6104296;23;20030;-90
2023/01/11 02:06:12;;;;;;;4.53;1.50;;;5.80;1.00;;;;;;6105554;23;20026;-88
2023/01/11 02:09:19;;;;;;;1.75;1.10;;;5.90;1.00;;;;;;6104269;23;20025;-89
2023/01/11 02:12:08;;;;;;;2.85;1.55;;;5.90;1.00;;;;;;6103352;23;20040;-88
2023/01/11 02:15:00;;;;;;;3.28;1.33;;;6.00;1.00;;;;;;6109099;23;20093;-88
2023/01/11 02:17:47;;;;;;;2.55;1.10;;;6.00;1.00;;;;;;6103232;23;20033;-88
2023/01/11 02:21:00;;;;;;;3.60;1.42;;;6.00;1.00;;;;;;6102388;23;20022;-89
2023/01/11 02:24:34;;;;;;;2.05;1.33;;;6.00;20.60;;;;;;6103472;23;20030;-90
2023/01/11 02:27:52;;;;;;;1.33;1.02;;;6.00;43.30;;;;;;6106083;23;20041;-90
2023/01/11 02:30:47;;;;;;;3.50;1.38;;;6.00;76.90;;;;;;6102130;23;20030;-87
2023/01/11 02:33:53;;;;;;;1.73;1.23;;;6.00;99.90;;;;;;6103623;23;20041;-89
2023/01/11 02:36:47;;;;;;;0.90;0.90;;;6.00;99.90;;;;;;6103101;23;20033;-89
2023/01/11 02:39:49;;;;;;;2.90;1.20;;;6.00;99.90;;;;;;6104124;23;20036;-89
2023/01/11 02:46:08;;;;;;;3.42;1.30;;;6.00;99.90;;;;;;6123084;23;20044;-89
2023/01/11 02:49:26;;;;;;;3.42;1.30;;;6.00;99.90;;;;;;6086545;23;20037;-88
2023/01/11 02:52:29;;;;;;;1.90;1.10;;;6.10;99.90;;;;;;6104230;23;20088;-89
2023/01/11 02:55:37;;;;;;;3.85;1.02;;;6.10;99.90;;;;;;6105431;23;20026;-90
2023/01/11 02:58:30;;;;;;;8.93;1.27;;;6.00;99.90;;;;;;6103976;23;20333;-90
2023/01/11 03:01:21;;;;;;;1.13;0.95;;;6.00;1.00;;;;;;6106423;23;20026;-89
2023/01/11 03:04:34;;;;;;;1.75;1.00;;;6.00;1.00;;;;;;6086268;23;20030;-89
2023/01/11 03:07:53;;;;;;;2.08;0.90;;;6.10;1.00;;;;;;6103267;23;20334;-88
2023/01/11 03:11:14;;;;;;;1.30;0.88;;;6.30;1.00;;;;;;6102742;23;20026;-90
2023/01/11 03:14:36;;;;;;;1.63;0.90;;;6.40;1.00;;;;;;6101282;23;20052;-88
2023/01/11 03:17:46;;;;;;;3.90;0.90;;;6.40;1.00;;;;;;6103688;23;20088;-89
2023/01/11 03:20:54;;;;;;;;;;;;;;;;;;;;;
2023/01/11 03:23:52;;;;;;;1.45;0.95;;;6.50;1.00;;;;;;6122561;23;20377;-88
2023/01/11 03:27:04;;;;;;;3.45;1.08;;;6.50;1.00;;;;;;6103167;23;20050;-88
2023/01/11 03:30:04;;;;;;;2.35;0.90;;;6.40;1.00;;;;;;6100352;23;20429;-88
2023/01/11 03:33:01;;;;;;;2.17;1.23;;;6.40;1.00;;;;;;6103556;23;20022;-89
2023/01/11 03:36:18;;;;;;;0.82;0.82;;;6.40;1.00;;;;;;6105653;23;20029;-90
2023/01/11 03:39:51;;;;;;;;;;;;;;;;;;;;;
2023/01/11 03:46:31;;;;;;;1.95;1.05;;;6.50;1.00;;;;;;6123302;23;20421;-88
2023/01/11 03:49:22;;;;;;;0.65;0.65;;;6.50;1.00;;;;;;6112440;23;20033;-89
2023/01/11 03:52:19;;;;;;;1.38;0.80;;;6.50;1.00;;;;;;6103688;23;20033;-89
2023/01/11 03:55:14;;;;;;;4.18;0.98;;;6.50;1.00;;;;;;6104154;23;20029;-90
2023/01/11 03:58:01;;;;;;;1.60;0.80;;;6.50;1.00;;;;;;6102064;23;20033;-90
2023/01/11 04:00:49;;;;;;;2.03;1.30;;;6.40;1.00;;;;;;6104010;23;20422;-89
2023/01/11 04:03:37;;;;;;;0.90;0.90;;;6.40;1.00;;;;;;6101772;23;20026;-89
2023/01/11 04:06:31;;;;;;;1.77;0.90;;;6.40;1.00;;;;;;6104804;23;20033;-89
2023/01/11 04:09:20;;;;;;;1.88;1.00;;;6.40;1.00;;;;;;6102841;23;20042;-89
2023/01/11 04:12:15;;;;;;;2.20;0.85;;;6.40;42.40;;;;;;6114845;23;20040;-87
2023/01/11 04:15:13;;;;;;;1.65;0.90;;;6.40;99.90;;;;;;6101172;23;20056;-89
2023/01/11 04:18:24;;;;;;;2.38;1.05;;;6.50;99.90;;;;;;6101912;23;20417;-89
2023/01/11 04:21:11;;;;;;;1.20;0.93;;;6.60;99.90;;;;;;6102460;23;20414;-89
2023/01/11 04:24:05;;;;;;;0.80;0.80;;;6.60;99.90;;;;;;6103870;23;20022;-90
2023/01/11 04:26:56;;;;;;;1.27;1.02;;;6.70;99.90;;;;;;6103264;23;20046;-89
2023/01/11 04:29:45;;;;;;;0.80;0.80;;;6.70;99.90;;;;;;6114040;23;20022;-87
2023/01/11 04:32:34;;;;;;;2.10;0.90;;;6.70;99.90;;;;;;6115195;23;20060;-89
2023/01/11 04:35:24;;;;;;;0.85;0.73;;;6.60;99.90;;;;;;6122398;22;20026;-89
2023/01/11 04:38:12;;;;;;;1.15;0.90;;;6.60;1.00;;;;;;6116488;23;20087;-88
2023/01/11 04:44:11;;;;;;;1.88;1.05;;;6.60;99.90;;;;;;6124893;23;20030;-88
2023/01/11 04:47:07;;;;;;;1.52;1.00;;;6.60;1.00;;;;;;6108463;23;20030;-89
2023/01/11 04:49:54;;;;;;;2.05;1.48;;;6.70;1.00;;;;;;6112729;23;20030;-91
2023/01/11 04:52:42;;;;;;;4.43;1.15;;;6.80;99.90;;;;;;6113062;23;20315;-90
2023/01/11 04:55:32;;;;;;;1.35;1.20;;;6.80;99.90;;;;;;6112532;23;20022;-89
2023/01/11 04:58:20;;;;;;;0.93;0.93;;;6.80;99.90;;;;;;6109948;23;20057;-90
2023/01/11 05:01:26;;;;;;;1.00;0.90;;;6.80;99.90;;;;;;6107782;23;20022;-89
2023/01/11 05:04:50;;;;;;;6.03;0.90;;;6.80;99.90;;;;;;6105826;23;20044;-90
2023/01/11 05:07:39;;;;;;;1.40;0.90;;;6.70;1.00;;;;;;6105683;23;20026;-90
2023/01/11 05:10:27;;;;;;;1.35;1.05;;;6.70;1.00;;;;;;6107462;23;20026;-90
2023/01/11 05:13:14;;;;;;;1.05;0.80;;;6.80;1.00;;;;;;6110915;23;20067;-89
2023/01/11 05:16:16;;;;;;;3.10;0.88;;;6.80;1.00;;;;;;6121163;23;20057;-90
2023/01/11 05:19:05;;;;;;;2.28;0.95;;;6.80;1.00;;;;;;6117670;23;20026;-90
2023/01/11 05:21:55;;;;;;;3.17;1.38;;;6.70;43.60;;;;;;6115247;23;20026;-87
2023/01/11 05:24:43;;;;;;;2.38;0.80;;;6.70;99.90;;;;;;6124407;22;20010;-87
2023/01/11 05:27:36;;;;;;;1.45;0.90;;;6.70;99.90;;;;;;6118175;22;20029;-87
2023/01/11 05:30:50;;;;;;;0.82;0.82;;;6.70;99.90;;;;;;6086490;23;20108;-88
2023/01/11 05:33:38;;;;;;;0.73;0.73;;;6.80;99.90;;;;;;6078888;23;20034;-88
2023/01/11 05:36:49;;;;;;;2.25;1.20;;;6.80;99.90;;;;;;6160917;23;20017;-88
2023/01/11 05:39:42;;;;;;;1.38;0.90;;;6.90;99.90;;;;;;6158487;23;20021;-89
2023/01/11 05:42:29;;;;;;;1.38;1.10;;;6.90;99.90;;;;;;6158225;23;20026;-88
2023/01/11 05:48:40;;;;;;;1.02;0.90;;;6.90;99.90;;;;;;6186168;23;20059;-88
2023/01/11 05:51:31;;;;;;;1.30;1.00;;;6.80;99.90;;;;;;6177762;23;20025;-89
2023/01/11 05:54:22;;;;;;;1.08;0.90;;;6.80;99.90;;;;;;6147411;23;20036;-89
2023/01/11 05:57:10;;;;;;;0.70;0.70;;;6.80;99.90;;;;;;6118228;23;20056;-89
2023/01/11 06:00:00;;;;;;;3.42;1.30;;;6.80;1.00;;;;;;6124394;22;20156;-87
2023/01/11 06:02:51;;;;;;;0.73;0.73;;;6.90;1.00;;;;;;6104085;23;20026;-87
2023/01/11 06:05:42;;;;;;;2.03;1.05;;;7.00;1.00;;;;;;6119166;22;20097;-91
2023/01/11 06:08:52;;;;;;;1.63;1.05;;;7.00;99.90;;;;;;6129574;23;20032;-89
2023/01/11 06:11:47;;;;;;;1.73;1.20;;;7.00;99.90;;;;;;6110214;23;20434;-89
2023/01/11 06:14:50;;;;;;;1.35;0.88;;;7.10;99.90;;;;;;6111956;23;20073;-91
2023/01/11 06:17:38;;;;;;;1.48;1.00;;;7.10;99.90;;;;;;6108367;23;20026;-89
2023/01/11 06:20:25;;;;;;;2.05;0.88;;;7.20;8.60;;;;;;6107667;23;20022;-88
2023/01/11 06:23:12;;;;;;;1.48;0.73;;;7.30;1.00;;;;;;6104646;23;20073;-89
2023/01/11 06:26:05;;;;;;;0.80;0.80;;;7.30;99.90;;;;;;6104335;23;20033;-90
2023/01/11 06:28:52;;;;;;;0.80;0.80;;;7.30;99.90;;;;;;6104494;23;20033;-90
2023/01/11 06:31:45;;;;;;;0.80;0.80;;;7.30;91.40;;;;;;6084011;23;20410;-89
2023/01/11 06:34:34;;;;;;;2.58;0.80;;;7.40;1.00;;;;;;6103085;23;20025;-89
2023/01/11 06:37:24;;;;;;;1.17;1.08;;;7.40;1.00;;;;;;6106856;23;20022;-90
2023/01/11 06:40:11;;;;;;;4.20;1.10;;;7.30;1.00;;;;;;6102204;23;20030;-86
2023/01/11 06:43:01;;;;;;;0.80;0.80;;;7.30;99.90;;;;;;6101853;23;20346;-90
2023/01/11 06:45:49;;;;;;;0.98;0.93;;;7.30;99.90;;;;;;6103305;23;20037;-89
2023/01/11 06:48:40;;;;;;;2.97;1.10;;;7.30;99.90;;;;;;6102795;23;20422;-88
2023/01/11 06:51:27;;;;;;;1.17;1.08;;;7.30;99.90;;;;;;6104335;23;20393;-87
2023/01/11 06:54:24;;;;;;;1.45;1.10;;;7.30;99.90;;;;;;6104254;23;20026;-90
2023/01/11 06:57:12;;;;;;;3.42;2.17;;;7.40;99.90;;;;;;6103056;23;20449;-88
2023/01/11 06:59:59;;;;;;;3.50;1.10;;;7.30;99.90;;;;;;6084357;23;20026;-88
2023/01/11 07:02:50;;;;;;;2.55;1.33;;;7.30;99.90;;;;;;6102292;23;20159;-88
2023/01/11 07:05:39;;;;;;;1.58;1.15;;;7.30;99.90;;;;;;6103443;23;20410;-89
2023/01/11 07:08:29;;;;;;;1.30;1.20;;;7.30;99.90;;;;;;6102862;23;20337;-88
2023/01/11 07:11:17;;;;;;;1.90;1.40;;;7.20;99.90;;;;;;6103661;23;20041;-89
2023/01/11 07:14:10;;;;;;;1.17;0.93;;;7.20;99.90;;;;;;6102673;23;20033;-89
2023/01/11 07:16:58;;;;;;;1.88;1.27;;;7.20;99.90;;;;;;6101965;23;20139;-89
2023/01/11 07:19:45;;;;;;;3.63;1.25;;;7.20;99.90;;;;;;6100577;23;20022;-86
2023/01/11 07:22:34;;;;;;;2.90;1.90;;;7.20;99.90;;;;;;6103034;23;20033;-86
2023/01/11 07:25:21;;;;;;;1.73;1.40;;;7.20;99.90;;;;;;6100436;23;20030;-87
2023/01/11 07:28:09;;;;;;;3.38;1.48;;;7.20;99.90;;;;;;6102284;23;20030;-84
2023/01/11 07:30:58;;;;;;;1.20;1.10;;;7.30;99.90;;;;;;6103130;23;20041;-89
2023/01/11 07:33:48;;;;;;;2.10;1.02;;;7.30;99.90;;;;;;6103603;23;20037;-89
2023/01/11 07:36:38;;;;;;;1.45;1.10;;;7.50;99.90;;;;;;6101771;23;20577;-89
2023/01/11 07:39:28;;;;;;;3.10;1.42;;;7.50;43.40;;;;;;6102939;23;20053;-88
2023/01/11 07:45:38;;;;;;;1.15;1.00;;;7.50;1.00;;;;;;6121516;23;20025;-86
2023/01/11 07:48:34;;;;;;;1.70;1.00;;;7.60;1.00;;;;;;6102734;23;20030;-89
2023/01/11 07:51:26;;;;;;;3.50;1.20;;;7.60;1.00;;;;;;6101542;23;20133;-86
2023/01/11 07:54:35;;;;;;;1.77;1.20;;;7.60;1.00;;;;;;6120591;23;20363;-87
2023/01/11 07:57:23;;;;;;;1.38;1.02;;;7.60;99.90;;;;;;6101317;23;20398;-86
2023/01/11 08:00:11;;;;;;;1.58;0.88;;;7.70;99.90;;;;;;6123422;23;20030;-86
2023/01/11 08:02:59;;;;;;;0.85;0.85;;;7.80;99.90;;;;;;6102979;23;20337;-87
2023/01/11 08:05:51;;;;;;;1.52;0.90;;;7.80;99.90;;;;;;6104713;23;20068;-90
2023/01/11 08:08:44;;;;;;;0.90;0.90;;;7.90;99.90;;;;;;6103582;23;20030;-88
2023/01/11 08:15:22;;;;;;;1.02;0.70;;;8.00;99.90;;;;;;6111785;23;20041;-88
2023/01/11 08:18:19;;;;;;;1.17;1.08;;;8.10;99.90;;;;;;6102855;23;20030;-90
2023/01/11 08:21:08;;;;;;;1.70;0.88;;;8.10;99.90;;;;;;6103162;23;20049;-86
2023/01/11 08:23:57;;;;;;;2.35;1.00;;;8.20;61.90;;;;;;6123720;23;20413;-87
2023/01/11 08:26:48;;;;;;;1.02;1.00;;;8.20;20.10;;;;;;6102887;23;20456;-87
2023/01/11 08:29:38;;;;;;;1.48;1.10;;;8.20;1.00;;;;;;6105396;23;20033;-88
2023/01/11 08:32:29;;;;;;;4.38;1.15;;;8.30;1.00;;;;;;6103855;23;20033;-86
2023/01/11 08:35:16;;;;;;;1.60;1.00;;;8.30;1.00;;;;;;6104276;23;20079;-89
2023/01/11 08:38:10;;;;;;;1.35;1.25;;;8.40;1.00;;;;;;6105541;23;20380;-85
2023/01/11 08:40:58;;;;;;;1.33;0.95;;;8.40;1.00;;;;;;6074745;23;20026;-87
2023/01/11 08:43:48;;;;;;;1.10;0.95;;;8.50;1.00;;;;;;6074334;23;20030;-89
2023/01/11 08:46:38;;;;;;;;;;;8.60;1.00;;;;;;6075748;23;20410;-88
2023/01/11 08:49:31;;;;;;;1.73;0.88;;;8.60;1.00;;;;;;6074240;23;19917;-88
2023/01/11 08:52:21;;;;;;;2.03;1.00;;;8.60;99.90;;;;;;6072996;23;20041;-87
2023/01/11 08:55:13;;;;;;;1.38;0.90;;;8.60;99.90;;;;;;6071161;23;20029;-87
2023/01/11 08:58:02;;;;;;;1.20;1.10;;;8.60;99.90;;;;;;6078271;23;20026;-87
2023/01/11 09:00:51;;;;;;;1.55;0.90;;;8.70;99.90;;;;;;6102820;23;20107;-88
2023/01/11 09:03:38;;;;;;;1.33;0.88;;;8.70;99.90;;;;;;6103839;23;20041;-88
2023/01/11 09:06:29;;;;;;;1.00;0.80;;;8.70;99.90;;;;;;6104544;23;20163;-85
2023/01/11 09:09:17;;;;;;;2.90;0.88;;;8.70;99.90;;;;;;6104951;23;20101;-89
2023/01/11 09:12:08;;;;;;;1.42;0.85;;;8.70;99.90;;;;;;6102661;23;20124;-85
2023/01/11 09:14:56;;;;;;;1.55;0.90;;;8.70;99.90;;;;;;6122528;23;20049;-86
2023/01/11 09:17:48;;;;;;;2.60;1.23;;;8.70;99.90;;;;;;6104056;23;20025;-88
2023/01/11 09:20:38;;;;;;;1.52;1.20;;;8.70;99.90;;;;;;6122735;23;20099;-88
2023/01/11 09:23:37;;;;;;;1.00;0.90;;;8.70;99.90;;;;;;6107076;23;20620;-85
2023/01/11 09:26:50;;;;;;;1.63;1.13;;;8.80;99.90;;;;;;6104621;23;20058;-86
2023/01/11 09:29:39;;;;;;;1.33;1.23;;;8.80;99.90;;;;;;6104821;23;20025;-86
2023/01/11 09:32:30;;;;;;;3.55;1.38;;;8.90;99.90;;;;;;6105879;23;20025;-90
2023/01/11 09:35:25;;;;;;;1.45;1.08;;;8.80;99.90;;;;;;6104427;23;20457;-89
2023/01/11 09:38:13;;;;;;;3.40;1.70;;;8.90;99.90;;;;;;6105110;23;20026;-86
2023/01/11 09:41:08;;;;;;;2.40;1.63;;;8.90;99.90;;;;;;6125141;23;20101;-89
2023/01/11 09:44:08;;;;;;;2.70;1.40;;;8.90;99.90;;;;;;6122992;23;20076;-87
2023/01/11 09:47:27;;;;;;;1.58;1.23;;;8.90;99.90;;;;;;6105267;23;20057;-85
2023/01/11 09:50:27;;;;;;;2.03;1.35;;;8.90;99.90;;;;;;6123842;23;20030;-89
2023/01/11 09:53:33;;;;;;;3.55;1.52;;;8.90;99.90;;;;;;6103364;23;20030;-86
2023/01/11 09:56:24;;;;;;;;;;;8.90;99.90;;;;;;6104043;23;20349;-86
2023/01/11 09:59:25;;;;;;;2.00;1.40;;;8.90;99.90;;;;;;6101996;23;20237;-84
2023/01/11 10:02:16;;;;;;;1.98;1.38;;;8.90;99.90;;;;;;6104086;23;20320;-88
2023/01/11 10:05:30;;;;;;;2.22;1.30;;;8.90;99.90;;;;;;6103659;23;20026;-85
2023/01/11 10:08:23;;;;;;;2.50;1.20;;;8.90;99.90;;;;;;6102488;23;20755;-84
2023/01/11 10:11:40;;;;;;;1.58;1.00;;;8.90;99.90;;;;;;6125743;22;20026;-85
2023/01/11 10:15:06;;;;;;;1.48;1.27;;;9.00;99.90;;;;;;6112412;23;20374;-88
2023/01/11 10:18:45;;;;;;;1.10;1.00;;;9.00;99.90;;;;;;6117868;23;20045;-87
2023/01/11 10:22:00;;;;;;;6.00;1.40;;;9.00;99.90;;;;;;6118325;23;20289;-84
2023/01/11 10:25:09;;;;;;;1.27;1.17;;;9.00;99.90;;;;;;6108923;23;20022;-86
2023/01/11 10:28:30;;;;;;;1.52;0.90;;;9.00;99.90;;;;;;6108273;23;20049;-85
2023/01/11 10:37:53;;;;;;;2.65;0.88;;;9.10;99.90;;;;;;6124605;23;20097;-86
2023/01/11 10:41:14;;;;;;;1.30;1.20;;;9.10;99.90;;;;;;6103075;23;20021;-89
2023/01/11 10:44:17;;;;;;;2.25;1.20;;;9.10;99.90;;;;;;6103617;23;20026;-89
2023/01/11 10:47:18;;;;;;;2.33;1.35;;;9.10;99.90;;;;;;6103962;23;20307;-87
2023/01/11 10:50:37;;;;;;;2.30;1.35;;;9.10;99.90;;;;;;6102748;23;20161;-88
2023/01/11 10:53:46;;;;;;;1.33;1.05;;;9.10;99.90;;;;;;6100929;23;20038;-89
2023/01/11 10:56:57;;;;;;;1.85;1.38;;;9.00;99.90;;;;;;6103993;23;20069;-87
2023/01/11 11:00:04;;;;;;;2.38;1.15;;;9.00;99.90;;;;;;6104702;23;20433;-90
2023/01/11 11:03:51;;;;;;;1.40;1.00;;;9.00;99.90;;;;;;6106502;23;20169;-89
2023/01/11 11:06:56;;;;;;;3.35;1.25;;;9.00;99.90;;;;;;6102692;23;20029;-90
2023/01/11 11:10:05;;;;;;;1.42;1.08;;;9.00;1.00;;;;;;6103499;23;20055;-87
2023/01/11 11:13:13;;;;;;;1.63;1.52;;;9.00;1.00;;;;;;6121382;23;20034;-85
2023/01/11 11:16:43;;;;;;;1.95;1.10;;;8.90;23.50;;;;;;6105326;23;20048;-86
2023/01/11 11:19:34;;;;;;;1.52;1.10;;;8.90;99.90;;;;;;6104633;23;20124;-85
2023/01/11 11:22:21;;;;;;;1.92;1.08;;;8.90;99.90;;;;;;6103510;23;20033;-89
2023/01/11 11:25:49;;;;;;;1.85;1.10;;;8.90;1.00;;;;;;6103114;23;20026;-88
2023/01/11 11:28:36;;;;;;;1.73;0.95;;;9.00;68.10;;;;;;6107854;23;20026;-88
2023/01/11 11:31:23;;;;;;;1.77;1.30;;;9.00;99.90;;;;;;6104185;23;20033;-86
2023/01/11 11:34:21;;;;;;;2.70;1.20;;;9.10;99.90;;;;;;6105711;23;20428;-86
2023/01/11 11:41:16;;;;;;;2.50;1.00;;;9.20;99.90;;;;;;6127364;23;20017;-88
2023/01/11 11:44:16;;;;;;;1.35;1.20;;;9.10;99.90;;;;;;6110166;23;20030;-88
2023/01/11 11:47:21;;;;;;;1.25;1.05;;;9.10;1.00;;;;;;6107954;23;20078;-86
2023/01/11 11:50:18;;;;;;;1.95;1.08;;;9.10;99.90;;;;;;6105923;23;20025;-88
2023/01/11 11:53:43;;;;;;;1.83;1.38;;;9.10;99.90;;;;;;6110126;23;20026;-88
2023/01/11 11:56:46;;;;;;;3.15;1.08;;;9.00;94.60;;;;;;6102178;23;20037;-89
2023/01/11 11:59:34;;;;;;;2.38;1.30;;;9.00;99.90;;;;;;6104794;23;20022;-86
2023/01/11 12:02:25;;;;;;;2.00;1.20;;;8.90;92.40;;;;;;6105296;23;20022;-87
2023/01/11 12:05:18;;;;;;;1.15;1.05;;;8.90;99.90;;;;;;6106251;23;20037;-86
2023/01/11 12:08:23;;;;;;;1.17;1.08;;;8.90;99.90;;;;;;6125411;23;20492;-87
2023/01/11 12:11:31;;;;;;;1.30;1.20;;;8.90;70.10;;;;;;6123942;23;20030;-88
2023/01/11 12:14:30;;;;;;;3.42;1.50;;;8.90;1.00;;;;;;6104055;23;20037;-86
2023/01/11 12:17:23;;;;;;;3.38;1.73;;;8.80;27.60;;;;;;6104169;23;20026;-87
2023/01/11 12:20:25;;;;;;;;;;;8.80;1.00;;;;;;6107087;23;20033;-84
2023/01/11 12:23:24;;;;;;;1.88;1.50;;;8.90;1.00;;;;;;6107275;23;19921;-86
2023/01/11 12:26:48;;;;;;;2.50;1.63;;;8.90;99.90;;;;;;6101036;23;20029;-87
2023/01/11 12:29:47;;;;;;;3.33;1.70;;;9.00;99.90;;;;;;6102692;23;20044;-86
2023/01/11 12:33:07;;;;;;;3.90;1.70;;;9.00;99.90;;;;;;6099034;23;20030;-85
2023/01/11 12:36:21;;;;;;;4.00;1.73;;;9.00;99.90;;;;;;6102929;23;20030;-86
2023/01/11 12:39:36;;;;;;;4.97;2.38;;;9.00;1.00;;;;;;6102320;23;20026;-90
2023/01/11 12:43:04;;;;;;;3.17;1.75;;;9.00;1.00;;;;;;6122844;23;20022;-85
2023/01/11 12:46:13;;;;;;;;;;;8.90;1.00;;;;;;6104470;23;20289;-89
2023/01/11 12:49:35;;;;;;;2.83;1.70;;;8.90;99.90;;;;;;6101908;23;19925;-87
2023/01/11 12:52:40;;;;;;;1.85;1.55;;;8.80;99.90;;;;;;6134648;23;20065;-88
2023/01/11 12:56:14;;;;;;;4.53;2.28;;;8.70;99.90;;;;;;6105282;23;20056;-91
2023/01/11 12:59:31;;;;;;;2.22;1.67;;;8.60;99.90;;;;;;6124064;23;20372;-88
2023/01/11 13:02:36;;;;;;;1.73;1.58;;;8.60;99.90;;;;;;6123104;23;20022;-90
2023/01/11 13:06:03;;;;;;;5.65;1.90;;;8.60;99.90;;;;;;6127302;23;20054;-91
2023/01/11 13:09:14;;;;;;;2.33;1.73;;;8.60;99.90;;;;;;6104225;23;20026;-87
2023/01/11 13:12:40;;;;;;;3.35;2.13;;;8.60;99.90;;;;;;6126269;23;20026;-86
2023/01/11 15:40:11;;;;;;;2.47;1.20;;;7.30;99.90;;;;;;6108692;22;20106;-86
2023/01/11 15:43:20;;;;;;;5.25;1.70;;;7.30;99.90;;;;;;6253614;22;20107;-88
2023/01/11 15:50:11;;;;;;;2.60;1.52;;;7.20;99.90;;;;;;6277772;22;20034;-88
2023/01/11 15:53:18;;;;;;;6.35;1.88;;;7.20;99.90;;;;;;6253632;22;20098;-88
2023/01/11 15:56:30;;;;;;;5.18;1.90;;;7.20;99.90;;;;;;6255348;22;20034;-93
2023/01/11 15:59:56;;;;;;;6.07;2.58;;;7.10;99.90;;;;;;6276401;22;20100;-91
2023/01/11 16:03:24;;;;;;;3.22;1.13;;;7.10;99.90;;;;;;6279523;22;20039;-90
2023/01/11 16:24:01;;;;;;;5.20;1.60;;;7.00;99.90;;;;;;6159640;23;20013;-87
2023/01/11 16:32:03;;;;;;;5.88;2.38;;;7.00;17.20;;;;;;6104801;23;20120;-85
2023/01/11 16:39:19;;;;;;;3.22;1.73;;;6.90;99.90;;;;;;6098358;23;20117;-85
2023/01/11 16:47:04;;;;;;;12.63;4.68;;;6.70;99.90;;;;;;6102601;23;20417;-87
2023/01/11 16:54:33;;;;;;;13.77;5.72;;;6.60;47.50;;;;;;6220114;22;20012;-86
2023/01/11 16:57:58;;;;;;;12.43;5.75;;;6.50;1.00;;;;;;6137336;23;20098;-86
2023/01/11 17:01:09;;;;;;;12.15;4.80;;;6.50;99.90;;;;;;6106690;23;20022;-86
2023/01/11 17:04:11;;;;;;;;;;;;;;;;;;;;;
2023/01/11 17:07:30;;;;;;;5.15;2.10;;;6.40;99.90;;;;;;6129331;23;20445;-86
2023/01/11 17:10:58;;;;;;;6.35;2.17;;;6.40;1.00;;;;;;6106523;23;20044;-87
2023/01/11 17:14:41;;;;;;;11.35;3.55;;;6.40;1.00;;;;;;6183905;22;20023;-87
2023/01/11 17:18:07;;;;;;;10.27;4.60;;;6.40;99.90;;;;;;6256997;22;20431;-86
2023/01/11 17:25:41;;;;;;;10.25;4.50;;;6.30;99.90;;;;;;6276836;22;20027;-88
2023/01/11 17:49:41;;;;;;;9.98;4.53;;;6.40;99.90;;;;;;6040731;23;20399;-88
2023/01/11 17:52:38;;;;;;;9.07;3.97;;;6.50;99.90;;;;;;6019330;23;20035;-88
2023/01/11 18:00:27;;;;;;;7.57;3.38;;;6.60;99.90;;;;;;5955301;24;20024;-90
2023/01/11 18:04:03;;;;;;;8.50;5.25;;;6.80;1.00;;;;;;5954411;24;20025;-90
2023/01/11 18:10:54;;;;;;;;;;;6.80;99.90;;;;;;6154551;23;20445;-87
2023/01/11 18:19:03;;;;;;;22.02;8.35;;;6.70;1.00;;;;;;6180485;22;20026;-86
2023/01/11 18:21:56;;;;;;;10.85;4.70;;;6.70;1.00;;;;;;6255037;22;20031;-86
2023/01/11 18:25:35;;;;;;;21.45;8.18;;;6.60;99.90;;;;;;6275975;22;20027;-86
2023/01/11 18:28:48;;;;;;;23.38;7.68;;;6.50;99.90;;;;;;6231581;22;20028;-86
2023/01/11 18:31:37;;;;;;;12.00;4.43;;;6.40;36.00;;;;;;6255749;22;20019;-86
2023/01/11 18:34:52;;;;;;;12.25;5.32;;;6.30;1.00;;;;;;6255029;22;20024;-86
2023/01/11 18:38:22;;;;;;;16.80;5.68;;;6.30;1.00;;;;;;6277074;22;20047;-86
2023/01/11 18:49:58;;;;;;;10.32;3.33;;;6.20;95.20;;;;;;6124866;23;20117;-85
2023/01/11 18:53:15;;;;;;;11.05;2.90;;;6.10;99.90;;;;;;6105277;23;20022;-87
2023/01/11 18:56:19;;;;;;;9.77;2.63;;;6.20;99.90;;;;;;6123543;23;20030;-87
2023/01/11 18:59:23;;;;;;;6.75;2.40;;;6.30;99.90;;;;;;6103600;23;20029;-87
2023/01/11 19:03:06;;;;;;;7.38;2.10;;;6.30;64.10;;;;;;6104377;23;20414;-87
2023/01/11 19:18:52;;;;;;;;;;;;;;;;;;;;;
2023/01/11 19:34:24;;;;;;;13.43;6.35;;;5.80;1.00;;;;;;6217887;22;20004;-86
2023/01/11 19:37:14;;;;;;;12.13;5.65;;;5.70;99.90;;;;;;6214953;23;20142;-87
2023/01/11 19:40:23;;;;;;;13.80;5.70;;;5.60;1.00;;;;;;6216882;23;20505;-88
2023/01/11 19:43:14;;;;;;;12.75;4.13;;;5.50;99.90;;;;;;6214846;23;20436;-88
2023/01/11 19:51:10;;;;;;;12.70;3.40;;;5.40;1.00;;;;;;6275546;22;20011;-87
2023/01/11 19:54:44;;;;;;;17.48;6.97;;;5.40;99.90;;;;;;6140183;22;20020;-88
2023/01/11 19:57:59;;;;;;;12.68;5.43;;;5.40;99.90;;;;;;6209816;22;20030;-88
2023/01/11 20:00:53;;;;;;;20.98;6.55;;;5.40;1.00;;;;;;6255368;22;20031;-88
2023/01/11 20:03:54;;;;;;;7.75;3.40;;;5.30;99.90;;;;;;6277000;22;20803;-87
2023/01/11 20:07:14;;;;;;;13.50;3.95;;;5.30;99.90;;;;;;6280620;22;20032;-87
2023/01/11 20:10:22;;;;;;;13.57;4.60;;;5.20;1.00;;;;;;6280248;22;20023;-87
2023/01/11 20:13:13;;;;;;;10.95;4.20;;;5.10;1.00;;;;;;6280431;22;20027;-87
2023/01/11 20:25:04;;;;;;;13.75;3.13;;;5.10;3.40;;;;;;6056540;23;20039;-89
2023/01/11 20:32:26;;;;;;;9.73;3.58;;;5.00;99.90;;;;;;6144665;23;20013;-86
2023/01/11 20:43:47;;;;;;;7.97;2.80;;;5.00;14.60;;;;;;6089177;23;20061;-89
2023/01/11 20:47:07;;;;;;;13.48;3.10;;;5.00;99.90;;;;;;6139956;23;20024;-90
2023/01/11 20:49:58;;;;;;;15.90;3.60;;;5.00;1.00;;;;;;6118057;23;20109;-90
2023/01/11 21:27:05;;;;;;;12.68;3.90;;;4.30;99.90;;;;;;6275862;22;20006;-88
2023/01/11 22:24:42;;;;;;;10.13;2.97;;;5.00;99.90;;;;;;6039257;23;20070;-88
2023/01/11 22:32:11;;;;;;;13.57;2.47;;;5.20;99.90;;;;;;5954552;24;20020;-89
2023/01/11 22:35:50;;;;;;;9.63;2.55;;;5.40;1.00;;;;;;6066412;23;20109;-89
2023/01/11 22:39:10;;;;;;;7.57;1.85;;;5.40;99.90;;;;;;6183684;23;20387;-87
2023/01/11 22:42:49;;;;;;;10.48;2.20;;;5.50;99.90;;;;;;5981242;23;20028;-88
2023/01/11 22:46:09;;;;;;;12.52;2.72;;;5.40;1.00;;;;;;5962539;23;20032;-89
2023/01/11 22:49:52;;;;;;;9.18;2.40;;;5.40;1.00;;;;;;5982612;23;20519;-88
2023/01/11 23:10:15;;;;;;;8.07;2.47;;;5.20;99.90;;;;;;6018562;23;20026;-91
2023/01/11 23:25:05;;;;;;;;;;;;;;;;;;;;;
2023/01/11 23:28:12;;;;;;;11.25;2.30;;;5.10;99.90;;;;;;5927002;24;20148;-90
2023/01/11 23:32:06;;;;;;;;;;;;;;;;;;;;;